Dati Storici

Data ora Umidita' aria (%) Temperatura aria (°C) Rad globale (W/m²) Gonioanemometro (°) Tacoanemometro (m/s) Pioggia (mm)
07-11-2012 04:50 73.3 % 8.036 1.423 37.054 1.73 0
07-11-2012 04:40 73.9 % 8.005 1.269 31.87 1.495 0
07-11-2012 04:30 74.4 % 7.95 1.359 33.745 2.003 0
07-11-2012 04:20 74.9 % 7.893 1.452 311.803 0.923 0
07-11-2012 04:10 75.4 % 7.808 1.195 357.754 2.537 0
07-11-2012 04:00 75.6 % 7.798 1.272 14.487 2.396 0
07-11-2012 03:50 75.5 % 7.891 1.349 48.682 1.671 0
07-11-2012 03:40 75.9 % 7.934 1.349 31.926 1.325 0
07-11-2012 03:30 76.4 % 7.763 1.311 25.796 2.246 0
07-11-2012 03:20 76.3 % 7.843 1.195 32.664 0.99 0
07-11-2012 03:10 76.6 % 8.005 1.157 2.849 1.254 0
07-11-2012 03:00 77.1 % 7.914 1.363 19.019 1.424 0
07-11-2012 02:50 77.3 % 7.984 1.132 353.884 1.524 0
07-11-2012 02:40 77 % 8.079 1.26 1.062 0.659 0
07-11-2012 02:30 77.1 % 8.106 0.901 86.363 2.013 0
07-11-2012 02:20 76.8 % 8.3 1.516 30.893 1.741 0
07-11-2012 02:10 76.9 % 8.38 1.504 21.713 1.599 0
07-11-2012 02:00 76.9 % 8.474 1.606 8.018 1.252 0
07-11-2012 01:50 76.9 % 8.484 1.593 52.206 3.1 0
07-11-2012 01:40 77 % 8.513 1.991 20.968 2.396 0

I dati sono presentati in modo automatico a scopo informativo. In seguito a verifica i dati possono subire modifiche o essere invalidati e non riportati negli archivi definitivi.